Time;durP1;ratioP1;P1;durP2;ratioP2;P2;SDS_P1;SDS_P2;PMS_P1;PMS_P2;Temp;Humidity;BMP_temperature;BMP_pressure;BME280_temperature;BME280_humidity;BME280_pressure;Samples;Min_cycle;Max_cycle;Signal;HPM_P1;HPM_P2
2022/12/20 00:05:22;;;;;;;1999.90;999.90;;;12.50;99.90;;;;;;6708648;88;20332;-75
2022/12/20 00:15:22;;;;;;;1999.90;999.90;;;12.60;99.90;;;;;;6710317;88;20341;-75
2022/12/20 00:25:24;;;;;;;1999.90;999.90;;;12.20;99.90;;;;;;6710039;88;20258;-75
2022/12/20 00:35:24;;;;;;;1999.90;999.90;;;12.00;99.90;;;;;;6709358;88;20293;-75
2022/12/20 00:45:25;;;;;;;1999.90;999.90;;;11.60;99.90;;;;;;6709831;88;20317;-75
2022/12/20 00:55:25;;;;;;;1999.90;999.90;;;11.60;99.90;;;;;;6708095;88;20181;-75
2022/12/20 01:05:26;;;;;;;1999.90;999.90;;;11.60;99.90;;;;;;6707802;88;20667;-75
2022/12/20 01:15:27;;;;;;;1999.90;999.90;;;11.50;99.90;;;;;;6708580;88;20194;-75
2022/12/20 01:25:28;;;;;;;1999.90;999.90;;;11.60;99.90;;;;;;6706670;88;20181;-75
2022/12/20 01:35:28;;;;;;;1999.90;999.90;;;10.80;99.90;;;;;;6708416;88;20755;-75
2022/12/20 01:45:30;;;;;;;1999.90;999.90;;;10.40;99.90;;;;;;6709250;88;20266;-75
2022/12/20 01:55:31;;;;;;;1999.90;999.90;;;10.30;99.90;;;;;;6706496;88;20639;-75
2022/12/20 02:05:41;;;;;;;1999.90;999.90;;;10.20;99.90;;;;;;6706735;88;20648;-75
2022/12/20 02:15:56;;;;;;;1999.90;999.90;;;10.10;99.90;;;;;;6704742;88;20177;-75
2022/12/20 02:26:19;;;;;;;1999.90;999.90;;;10.10;99.90;;;;;;6703433;88;20190;-75
2022/12/20 02:36:19;;;;;;;1999.90;999.90;;;10.20;99.90;;;;;;6704087;88;20200;-75
2022/12/20 02:46:22;;;;;;;1999.90;999.90;;;10.10;99.90;;;;;;6708075;88;20191;-75
2022/12/20 02:56:30;;;;;;;1999.90;999.90;;;9.90;99.90;;;;;;6709741;88;20238;-75
2022/12/20 03:06:31;;;;;;;1999.90;999.90;;;9.80;99.90;;;;;;6708360;88;20227;-75
2022/12/20 03:16:32;;;;;;;1999.90;999.90;;;9.70;99.90;;;;;;6708422;88;20366;-76
2022/12/20 03:26:32;;;;;;;1999.90;999.90;;;9.70;99.90;;;;;;6708120;88;20649;-75
2022/12/20 03:36:33;;;;;;;1999.90;999.90;;;9.60;99.90;;;;;;6708657;88;20707;-75
2022/12/20 03:46:34;;;;;;;1999.90;999.90;;;9.60;99.90;;;;;;6706669;88;20758;-75
2022/12/20 03:56:34;;;;;;;1999.90;999.90;;;9.60;99.90;;;;;;6707675;88;20201;-75
2022/12/20 04:06:35;;;;;;;1999.90;999.90;;;9.70;99.90;;;;;;6708350;88;21106;-76
2022/12/20 04:16:35;;;;;;;1999.90;999.90;;;10.00;99.90;;;;;;6707729;88;20499;-75
2022/12/20 04:26:36;;;;;;;1999.90;999.90;;;9.90;99.90;;;;;;6706822;88;20215;-75
2022/12/20 04:36:37;;;;;;;1999.90;999.90;;;9.90;99.90;;;;;;6707465;88;20222;-75
2022/12/20 04:46:37;;;;;;;1999.90;999.90;;;10.00;99.90;;;;;;6708747;88;21090;-75
2022/12/20 04:56:38;;;;;;;1999.90;999.90;;;9.90;99.90;;;;;;6708696;88;20296;-75
2022/12/20 05:06:38;;;;;;;1999.90;999.90;;;10.00;99.90;;;;;;6710307;88;20620;-75
2022/12/20 05:16:39;;;;;;;1999.90;999.90;;;9.90;99.90;;;;;;6716483;88;20213;-76
2022/12/20 05:26:40;;;;;;;1999.90;999.90;;;10.00;99.90;;;;;;6714162;88;20194;-74
2022/12/20 05:36:40;;;;;;;1999.90;999.90;;;9.80;99.90;;;;;;6712156;88;20197;-77
2022/12/20 05:46:41;;;;;;;1999.90;999.90;;;9.90;99.90;;;;;;6712724;88;20247;-76
2022/12/20 05:56:41;;;;;;;1999.90;999.90;;;9.90;99.90;;;;;;6714252;88;20198;-75
2022/12/20 06:06:42;;;;;;;1999.90;999.90;;;9.90;99.90;;;;;;6719280;88;20189;-75
2022/12/20 06:16:42;;;;;;;1999.90;999.90;;;10.00;99.90;;;;;;6720203;88;20182;-74
2022/12/20 06:26:43;;;;;;;1999.90;999.90;;;10.20;99.90;;;;;;6725450;88;20205;-76
2022/12/20 06:36:44;;;;;;;1999.90;999.90;;;10.20;99.90;;;;;;6723530;88;20174;-77
2022/12/20 06:46:44;;;;;;;1999.90;999.90;;;10.20;99.90;;;;;;6715961;88;20748;-77
2022/12/20 06:56:45;;;;;;;1999.90;999.90;;;10.30;99.90;;;;;;6715659;88;20292;-78
2022/12/20 07:06:45;;;;;;;1999.90;999.90;;;10.20;99.90;;;;;;6716463;88;20794;-77
2022/12/20 07:16:46;;;;;;;1999.90;999.90;;;10.10;99.90;;;;;;6716837;88;20258;-77
2022/12/20 07:26:46;;;;;;;1999.90;999.90;;;10.10;99.90;;;;;;6717531;88;20189;-76
2022/12/20 07:36:47;;;;;;;1999.90;999.90;;;10.30;99.90;;;;;;6714202;88;20368;-76
2022/12/20 07:46:48;;;;;;;1999.90;999.90;;;10.20;99.90;;;;;;6713642;88;20254;-78
2022/12/20 07:56:51;;;;;;;1999.90;999.90;;;10.30;99.90;;;;;;6710123;88;20201;-77
2022/12/20 08:06:55;;;;;;;1999.90;999.90;;;10.30;99.90;;;;;;6712406;88;20217;-78
2022/12/20 08:16:55;;;;;;;1999.90;999.90;;;10.70;99.90;;;;;;6712064;88;20230;-77
2022/12/20 08:26:56;;;;;;;1999.90;999.90;;;10.70;99.90;;;;;;6716266;88;20618;-76
2022/12/20 08:36:57;;;;;;;1999.90;999.90;;;10.80;99.90;;;;;;6717859;88;20578;-74
2022/12/20 08:46:57;;;;;;;1999.90;999.90;;;10.90;99.90;;;;;;6712788;88;20201;-75
2022/12/20 08:56:58;;;;;;;1999.90;999.90;;;10.80;99.90;;;;;;6713338;88;20563;-76
2022/12/20 09:06:58;;;;;;;1999.90;999.90;;;11.10;99.90;;;;;;6711716;88;20583;-75
2022/12/20 09:16:59;;;;;;;1999.90;999.90;;;11.40;99.90;;;;;;6712127;88;20216;-73
2022/12/20 09:26:59;;;;;;;1999.90;999.90;;;12.00;99.90;;;;;;6711352;88;20653;-77
2022/12/20 09:37:00;;;;;;;1999.90;999.90;;;12.60;99.90;;;;;;6710903;88;20721;-76
2022/12/20 09:47:06;;;;;;;1999.90;999.90;;;12.60;99.90;;;;;;6710764;88;20232;-76
2022/12/20 09:57:44;;;;;;;1999.90;999.90;;;12.80;99.90;;;;;;6711265;88;20231;-76
2022/12/20 10:08:00;;;;;;;1999.90;999.90;;;12.80;99.90;;;;;;6713486;88;20634;-76
2022/12/20 10:18:18;;;;;;;1999.90;999.90;;;12.90;99.90;;;;;;6709677;88;20728;-75
2022/12/20 10:28:24;;;;;;;1999.90;999.90;;;12.80;99.90;;;;;;6713850;88;20185;-77
2022/12/20 10:38:43;;;;;;;1999.90;999.90;;;13.00;99.90;;;;;;6713028;88;20242;-77
2022/12/20 10:48:46;;;;;;;1999.90;999.90;;;13.10;99.90;;;;;;6713706;88;20236;-77
2022/12/20 10:58:57;;;;;;;1999.90;999.90;;;13.20;99.90;;;;;;6717813;77;20358;-75
2022/12/20 11:09:31;;;;;;;1999.90;999.90;;;13.10;99.90;;;;;;6681664;88;20642;-75
2022/12/20 11:19:46;;;;;;;1999.90;999.90;;;13.10;99.90;;;;;;6687386;88;20265;-77
2022/12/20 11:30:08;;;;;;;1999.90;999.90;;;13.00;99.90;;;;;;6686040;88;20201;-77
2022/12/20 11:40:31;;;;;;;1999.90;999.90;;;13.20;99.90;;;;;;6681412;88;20730;-77
2022/12/20 11:50:56;;;;;;;1999.90;999.90;;;13.20;99.90;;;;;;6680957;88;20226;-77
2022/12/20 12:01:06;;;;;;;1999.90;999.90;;;13.20;99.90;;;;;;6686104;88;20233;-77
2022/12/20 12:11:19;;;;;;;1999.90;999.90;;;13.30;99.90;;;;;;6695191;88;20582;-77
2022/12/20 12:21:35;;;;;;;1999.90;999.90;;;13.40;99.90;;;;;;6698361;88;20715;-77
2022/12/20 12:31:51;;;;;;;;;;;13.40;99.90;;;;;;6699968;88;20185;-77
2022/12/20 12:42:30;;;;;;;1999.90;999.90;;;13.40;99.90;;;;;;6700516;88;20135;-77
2022/12/20 12:52:42;;;;;;;1999.90;999.90;;;13.60;99.90;;;;;;6697827;88;20228;-77
2022/12/20 13:02:50;;;;;;;1999.90;999.90;;;13.60;99.90;;;;;;6696465;88;20269;-77
2022/12/20 13:12:50;;;;;;;1999.90;999.90;;;13.80;99.90;;;;;;6695158;88;20289;-76
2022/12/20 13:23:10;;;;;;;1999.90;999.90;;;13.90;99.90;;;;;;6701097;88;20896;-77
2022/12/20 13:33:45;;;;;;;1999.90;999.90;;;13.80;99.90;;;;;;6698960;88;20667;-75
2022/12/20 13:43:48;;;;;;;1999.90;999.90;;;13.70;99.90;;;;;;6697972;88;20208;-76
2022/12/20 13:54:06;;;;;;;1999.90;999.90;;;13.80;99.90;;;;;;6694462;88;20185;-76
2022/12/20 14:04:09;;;;;;;1999.90;999.90;;;13.70;99.90;;;;;;6705179;88;20292;-77
2022/12/20 14:14:12;;;;;;;1999.90;999.90;;;13.60;99.90;;;;;;6707814;88;20234;-76
2022/12/20 14:24:17;;;;;;;1999.90;999.90;;;13.50;99.90;;;;;;6703075;88;20649;-76
2022/12/20 14:34:30;;;;;;;1999.90;999.90;;;13.50;99.90;;;;;;6705687;88;20371;-76
2022/12/20 14:44:31;;;;;;;1999.90;999.90;;;13.60;99.90;;;;;;6698943;88;20354;-76
2022/12/20 14:54:32;;;;;;;1999.90;999.90;;;13.50;99.90;;;;;;6700909;88;20194;-76
2022/12/20 15:04:33;;;;;;;1999.90;999.90;;;13.40;99.90;;;;;;6700766;88;20313;-76
2022/12/20 15:14:39;;;;;;;1999.90;999.90;;;13.40;99.90;;;;;;6702930;88;20199;-77
2022/12/20 15:24:40;;;;;;;;;;;13.30;99.90;;;;;;6708364;88;20179;-76
2022/12/20 15:34:40;;;;;;;1999.90;999.90;;;13.30;99.90;;;;;;6711557;88;20525;-78
2022/12/20 15:44:41;;;;;;;1999.90;999.90;;;13.30;99.90;;;;;;6706422;88;20284;-77
2022/12/20 15:54:42;;;;;;;1999.90;999.90;;;13.30;99.90;;;;;;6702684;88;20223;-75
2022/12/20 16:04:42;;;;;;;1999.90;999.90;;;13.20;99.90;;;;;;6701628;88;20368;-76
2022/12/20 16:14:43;;;;;;;1999.90;999.90;;;13.10;99.90;;;;;;6701005;88;20185;-76
2022/12/20 16:24:44;;;;;;;1999.90;999.90;;;13.10;99.90;;;;;;6709637;88;20181;-76
2022/12/20 16:34:44;;;;;;;1999.90;999.90;;;12.90;99.90;;;;;;6698634;88;20791;-77
2022/12/20 16:44:50;;;;;;;1999.90;999.90;;;12.80;99.90;;;;;;6708250;88;20209;-78
2022/12/20 16:54:51;;;;;;;1999.90;999.90;;;12.60;99.90;;;;;;6698881;88;20825;-78
2022/12/20 17:04:51;;;;;;;1999.90;999.90;;;12.60;99.90;;;;;;6713325;77;20186;-77
2022/12/20 17:14:52;;;;;;;1999.90;999.90;;;12.40;99.90;;;;;;6714959;88;20190;-78
2022/12/20 17:24:52;;;;;;;1999.90;999.90;;;12.20;99.90;;;;;;6721335;88;20283;-77
2022/12/20 17:34:54;;;;;;;1999.90;999.90;;;12.00;99.90;;;;;;6717192;88;20186;-77
2022/12/20 17:44:55;;;;;;;1999.90;999.90;;;12.00;99.90;;;;;;6711159;88;20175;-76
2022/12/20 17:54:55;;;;;;;1999.90;999.90;;;12.10;99.90;;;;;;6713714;88;20722;-76
2022/12/20 18:04:56;;;;;;;1999.90;999.90;;;12.20;99.90;;;;;;6713414;88;20190;-78
2022/12/20 18:14:56;;;;;;;1999.90;999.90;;;12.10;99.90;;;;;;6712322;88;20193;-77
2022/12/20 18:24:57;;;;;;;1999.90;999.90;;;12.30;99.90;;;;;;6712292;88;20319;-76
2022/12/20 18:34:58;;;;;;;1999.90;999.90;;;12.30;99.90;;;;;;6712298;88;20196;-77
2022/12/20 18:44:59;;;;;;;1999.90;999.90;;;12.50;99.90;;;;;;6714638;88;20190;-74
2022/12/20 18:54:59;;;;;;;1999.90;999.90;;;12.50;99.90;;;;;;6715581;88;20699;-77
2022/12/20 19:05:00;;;;;;;1999.90;999.90;;;12.40;99.90;;;;;;6706006;88;20197;-75
2022/12/20 19:15:00;;;;;;;1999.90;999.90;;;12.40;99.90;;;;;;6707862;88;20190;-76
2022/12/20 19:25:01;;;;;;;1999.90;999.90;;;12.60;99.90;;;;;;6703477;88;20190;-77
2022/12/20 19:35:01;;;;;;;1999.90;999.90;;;12.70;99.90;;;;;;6707989;88;20302;-77
2022/12/20 19:45:02;;;;;;;1999.90;999.90;;;12.60;99.90;;;;;;6710234;88;20178;-77
2022/12/20 19:55:03;;;;;;;1999.90;999.90;;;12.80;99.90;;;;;;6708258;88;20259;-76
2022/12/20 20:05:04;;;;;;;1999.90;999.90;;;12.90;99.90;;;;;;6712802;88;20202;-76
2022/12/20 20:15:05;;;;;;;1999.90;999.90;;;13.00;99.90;;;;;;6707571;88;20187;-76
2022/12/20 20:25:06;;;;;;;1999.90;999.90;;;13.00;99.90;;;;;;6706498;88;20248;-75
2022/12/20 20:35:08;;;;;;;1999.90;999.90;;;13.00;99.90;;;;;;6703209;88;20283;-76
2022/12/20 20:45:09;;;;;;;1999.90;999.90;;;13.10;99.90;;;;;;6707109;88;21082;-75
2022/12/20 20:55:10;;;;;;;1999.90;999.90;;;13.00;99.90;;;;;;6705416;88;20228;-76
2022/12/20 21:05:10;;;;;;;1999.90;999.90;;;13.00;99.90;;;;;;6706238;88;20193;-77
2022/12/20 21:15:11;;;;;;;1999.90;999.90;;;13.00;99.90;;;;;;6711929;88;20331;-77
2022/12/20 21:25:12;;;;;;;1999.90;999.90;;;13.10;99.90;;;;;;6715486;88;20277;-76
2022/12/20 21:35:13;;;;;;;1999.90;999.90;;;13.00;99.90;;;;;;6713590;88;20212;-77
2022/12/20 21:45:14;;;;;;;1999.90;999.90;;;12.90;99.90;;;;;;6708149;88;20186;-76
2022/12/20 21:55:15;;;;;;;1999.90;999.90;;;12.90;99.90;;;;;;6704175;88;20324;-77
2022/12/20 22:05:15;;;;;;;1999.90;999.90;;;12.80;99.90;;;;;;6709603;88;20373;-77
2022/12/20 22:15:16;;;;;;;1999.90;999.90;;;12.80;99.90;;;;;;6707513;88;20707;-76
2022/12/20 22:25:16;;;;;;;1999.90;999.90;;;12.70;99.90;;;;;;6701680;88;20190;-76
2022/12/20 22:35:17;;;;;;;1999.90;999.90;;;12.70;99.90;;;;;;6706064;88;20200;-76
2022/12/20 22:45:17;;;;;;;1999.90;999.90;;;12.70;99.90;;;;;;6703419;88;20741;-75
2022/12/20 22:55:18;;;;;;;1999.90;999.90;;;12.60;99.90;;;;;;6725696;88;20212;-73
2022/12/20 23:05:39;;;;;;;1999.90;999.90;;;12.70;99.90;;;;;;6707908;88;21116;-76
2022/12/20 23:15:40;;;;;;;1999.90;999.90;;;12.50;99.90;;;;;;6701932;88;20183;-76
2022/12/20 23:25:42;;;;;;;1999.90;999.90;;;12.50;99.90;;;;;;6706648;88;20675;-77
2022/12/20 23:35:42;;;;;;;1999.90;999.90;;;12.50;99.90;;;;;;6703698;88;20646;-76
2022/12/20 23:45:43;;;;;;;1999.90;999.90;;;12.40;99.90;;;;;;6707916;88;20332;-76
2022/12/20 23:55:54;;;;;;;1999.90;999.90;;;12.50;99.90;;;;;;6706426;88;20222;-78
